createdAt,value
2022-11-17T00:02:54.375Z,5.30
2022-11-17T00:06:04.524Z,5.88
2022-11-17T00:09:17.353Z,3.38
2022-11-17T00:12:40.732Z,3.15
2022-11-17T00:15:45.704Z,1.77
2022-11-17T00:19:09.021Z,1.98
2022-11-17T00:22:13.937Z,2.50
2022-11-17T00:25:18.537Z,1.63
2022-11-17T00:28:23.395Z,1.23
2022-11-17T00:31:51.876Z,1.88
2022-11-17T00:34:56.697Z,3.08
2022-11-17T00:38:16.265Z,1.35
2022-11-17T00:41:21.121Z,1.75
2022-11-17T00:44:26.600Z,1.40
2022-11-17T00:47:36.045Z,1.20
2022-11-17T00:50:40.907Z,1.40
2022-11-17T00:53:46.277Z,1.50
2022-11-17T00:56:51.263Z,1.98
2022-11-17T00:59:56.246Z,1.90
2022-11-17T01:03:01.246Z,1.77
2022-11-17T01:06:15.949Z,2.88
2022-11-17T01:09:23.696Z,2.45
2022-11-17T01:12:28.385Z,2.30
2022-11-17T01:15:34.148Z,2.60
2022-11-17T01:18:40.418Z,2.20
2022-11-17T01:21:46.834Z,2.30
2022-11-17T01:24:51.683Z,2.28
2022-11-17T01:27:56.682Z,1.58
2022-11-17T01:31:08.402Z,2.38
2022-11-17T01:34:13.650Z,2.25
2022-11-17T01:37:19.049Z,1.70
2022-11-17T01:40:24.145Z,3.15
2022-11-17T01:43:59.156Z,1.48
2022-11-17T01:47:05.648Z,1.83
2022-11-17T01:50:33.172Z,4.00
2022-11-17T01:53:39.115Z,2.13
2022-11-17T01:56:47.988Z,1.17
2022-11-17T02:00:00.536Z,1.83
2022-11-17T02:03:07.202Z,2.05
2022-11-17T02:06:22.445Z,1.98
2022-11-17T02:09:27.809Z,1.23
2022-11-17T02:12:34.048Z,2.28
2022-11-17T02:15:39.420Z,1.63
2022-11-17T02:18:46.027Z,3.92
2022-11-17T02:22:57.814Z,1.88
2022-11-17T02:26:42.959Z,3.35
2022-11-17T02:30:16.857Z,3.00
2022-11-17T02:33:45.598Z,1.83
2022-11-17T02:37:25.366Z,1.95
2022-11-17T02:40:35.023Z,2.70
2022-11-17T02:44:06.721Z,3.00
2022-11-17T02:47:23.207Z,1.88
2022-11-17T02:50:28.936Z,3.00
2022-11-17T02:53:34.821Z,1.92
2022-11-17T02:56:42.595Z,2.08
2022-11-17T02:59:49.306Z,3.42
2022-11-17T03:03:21.875Z,3.15
2022-11-17T03:06:45.813Z,3.35
2022-11-17T03:10:20.703Z,2.55
2022-11-17T03:13:44.047Z,3.33
2022-11-17T03:17:27.201Z,4.05
2022-11-17T03:20:42.723Z,4.60
2022-11-17T03:24:12.520Z,3.85
2022-11-17T03:27:35.647Z,3.58
2022-11-17T03:30:43.777Z,5.07
2022-11-17T03:33:50.169Z,5.13
2022-11-17T03:37:00.633Z,4.40
2022-11-17T03:40:09.911Z,4.50
2022-11-17T03:43:17.521Z,4.03
2022-11-17T03:46:23.281Z,2.50
2022-11-17T03:49:49.005Z,2.67
2022-11-17T03:52:54.430Z,2.13
2022-11-17T03:56:35.235Z,1.40
2022-11-17T03:59:53.785Z,1.23
2022-11-17T04:02:58.910Z,1.98
2022-11-17T04:06:04.305Z,1.48
2022-11-17T04:09:09.493Z,1.40
2022-11-17T04:12:32.834Z,1.92
2022-11-17T04:15:56.317Z,1.48
2022-11-17T04:19:01.402Z,2.40
2022-11-17T04:22:06.349Z,1.63
2022-11-17T04:25:31.116Z,0.88
2022-11-17T04:28:41.314Z,1.65
2022-11-17T04:31:46.280Z,1.88
2022-11-17T04:34:51.135Z,4.68
2022-11-17T04:37:55.865Z,1.05
2022-11-17T04:41:25.719Z,1.35
2022-11-17T04:44:32.130Z,1.13
2022-11-17T04:47:37.215Z,1.80
2022-11-17T04:50:41.915Z,2.22
2022-11-17T04:53:46.949Z,1.88
2022-11-17T04:56:54.227Z,1.90
2022-11-17T04:59:59.286Z,1.58
2022-11-17T05:03:04.551Z,0.90
2022-11-17T05:06:14.748Z,1.55
2022-11-17T05:09:19.588Z,1.10
2022-11-17T05:12:56.786Z,1.63
2022-11-17T05:16:20.544Z,1.60
2022-11-17T05:19:27.734Z,3.35
2022-11-17T05:22:50.836Z,1.75
2022-11-17T05:25:55.734Z,2.35
2022-11-17T05:29:03.713Z,2.75
2022-11-17T05:32:08.614Z,2.30
2022-11-17T05:35:13.489Z,2.22
2022-11-17T05:38:18.209Z,2.50
2022-11-17T05:41:24.039Z,3.60
2022-11-17T05:44:28.566Z,2.35
2022-11-17T05:47:33.347Z,6.18
2022-11-17T05:50:38.255Z,4.10
2022-11-17T05:53:43.149Z,3.35
2022-11-17T05:56:55.515Z,3.53
2022-11-17T06:00:04.340Z,4.03
2022-11-17T06:03:30.845Z,4.50
2022-11-17T06:06:36.462Z,3.80
2022-11-17T06:09:42.243Z,3.75
2022-11-17T06:12:47.834Z,6.30
2022-11-17T06:15:57.285Z,5.68
2022-11-17T06:19:13.667Z,3.45
2022-11-17T06:22:18.305Z,4.53
2022-11-17T06:25:23.520Z,5.22
2022-11-17T06:28:31.359Z,4.70
2022-11-17T06:31:36.986Z,8.27
2022-11-17T06:34:43.668Z,4.95
2022-11-17T06:37:48.473Z,5.25
2022-11-17T06:40:53.305Z,6.30
2022-11-17T06:43:58.359Z,6.68
2022-11-17T06:47:03.235Z,26.08
2022-11-17T06:50:08.480Z,5.30
2022-11-17T06:53:13.614Z,4.63
2022-11-17T06:56:18.785Z,9.32
2022-11-17T06:59:23.673Z,5.68
2022-11-17T07:02:31.661Z,4.65
2022-11-17T07:05:40.116Z,4.10
2022-11-17T07:08:45.833Z,6.45
2022-11-17T07:11:50.683Z,4.50
2022-11-17T07:14:55.553Z,4.57
2022-11-17T07:18:00.455Z,4.15
2022-11-17T07:21:07.633Z,4.65
2022-11-17T07:24:12.717Z,4.78
2022-11-17T07:27:17.694Z,3.45
2022-11-17T07:30:22.629Z,4.10
2022-11-17T07:33:27.623Z,4.32
2022-11-17T07:36:33.419Z,3.60
2022-11-17T07:39:38.116Z,3.50
2022-11-17T07:42:49.161Z,3.70
2022-11-17T07:45:55.397Z,2.88
2022-11-17T07:49:00.109Z,3.47
2022-11-17T07:52:04.916Z,3.42
2022-11-17T07:55:09.858Z,4.40
2022-11-17T07:58:15.154Z,2.80
2022-11-17T08:01:20.118Z,3.13
2022-11-17T08:04:24.838Z,2.83
2022-11-17T08:07:29.595Z,5.75
2022-11-17T08:10:34.631Z,4.50
2022-11-17T08:13:40.874Z,8.00
2022-11-17T08:16:45.884Z,5.35
2022-11-17T08:19:50.953Z,5.00
2022-11-17T08:22:56.578Z,4.43
2022-11-17T08:26:05.578Z,4.30
2022-11-17T08:29:10.592Z,3.80
2022-11-17T08:32:15.292Z,3.72
2022-11-17T08:35:25.271Z,4.68
2022-11-17T08:38:30.526Z,3.72
2022-11-17T08:41:35.305Z,6.60
2022-11-17T08:44:40.533Z,4.03
2022-11-17T08:47:45.478Z,6.07
2022-11-17T08:50:51.026Z,4.82
2022-11-17T08:53:56.243Z,3.83
2022-11-17T08:57:00.964Z,4.75
2022-11-17T09:00:09.517Z,4.05
2022-11-17T09:03:14.774Z,4.53
2022-11-17T09:06:20.099Z,4.57
2022-11-17T09:09:25.305Z,2.65
2022-11-17T09:12:30.236Z,6.65
2022-11-17T09:15:35.550Z,4.63
2022-11-17T09:18:41.424Z,3.58
2022-11-17T09:21:46.464Z,4.20
2022-11-17T09:24:51.108Z,3.67
2022-11-17T09:27:56.068Z,3.80
2022-11-17T09:31:09.655Z,5.22
2022-11-17T09:34:14.266Z,4.88
2022-11-17T09:37:18.914Z,3.72
2022-11-17T09:40:23.932Z,7.00
2022-11-17T09:43:31.813Z,3.78
2022-11-17T09:47:00.915Z,4.90
2022-11-17T09:50:29.337Z,5.20
2022-11-17T09:53:40.480Z,4.20
2022-11-17T09:56:46.758Z,4.30
2022-11-17T10:00:19.775Z,4.40
2022-11-17T10:03:40.068Z,4.05
2022-11-17T10:06:50.491Z,3.85
2022-11-17T10:09:55.634Z,4.10
2022-11-17T10:13:02.928Z,5.63
2022-11-17T10:16:12.710Z,5.60
2022-11-17T10:19:24.378Z,5.28
2022-11-17T10:22:36.740Z,3.50
2022-11-17T10:25:45.431Z,3.97
2022-11-17T10:29:09.425Z,3.30
2022-11-17T10:32:15.073Z,4.40
2022-11-17T10:35:23.931Z,3.92
2022-11-17T10:38:29.819Z,4.53
2022-11-17T10:41:40.900Z,6.53
2022-11-17T10:44:51.267Z,5.20
2022-11-17T10:48:36.368Z,3.90
2022-11-17T10:51:41.257Z,2.60
2022-11-17T10:54:46.174Z,3.67
2022-11-17T10:58:14.670Z,4.80
2022-11-17T11:01:33.480Z,3.20
2022-11-17T11:04:39.532Z,3.75
2022-11-17T11:07:45.053Z,5.57
2022-11-17T11:10:52.451Z,5.03
2022-11-17T11:14:08.107Z,4.60
2022-11-17T11:17:16.026Z,4.97
2022-11-17T11:20:42.646Z,3.42
2022-11-17T11:24:21.529Z,3.92
2022-11-17T11:28:32.065Z,5.38
2022-11-17T11:31:58.077Z,4.50
2022-11-17T11:35:24.779Z,3.45
2022-11-17T11:38:56.752Z,4.60
2022-11-17T11:42:37.031Z,4.55
2022-11-17T11:45:56.964Z,4.78
2022-11-17T11:49:15.296Z,5.20
2022-11-17T11:52:23.208Z,8.40
2022-11-17T11:55:32.150Z,4.22
2022-11-17T11:58:46.774Z,5.53
2022-11-17T12:02:12.780Z,3.80
2022-11-17T12:05:29.044Z,6.53
2022-11-17T12:08:44.764Z,6.20
2022-11-17T12:12:00.285Z,6.95
2022-11-17T12:15:12.777Z,8.75
2022-11-17T12:18:17.237Z,6.70
2022-11-17T12:21:25.176Z,6.82
2022-11-17T12:24:40.836Z,7.50
2022-11-17T12:27:52.425Z,9.07
2022-11-17T12:31:10.819Z,6.05
2022-11-17T12:34:59.720Z,6.50
2022-11-17T12:38:16.481Z,8.10
2022-11-17T12:41:49.917Z,6.55
2022-11-17T12:45:00.321Z,7.75
2022-11-17T12:48:32.415Z,6.57
2022-11-17T12:51:40.260Z,8.45
2022-11-17T12:54:56.515Z,7.03
2022-11-17T12:58:25.041Z,4.53
2022-11-17T13:01:55.427Z,4.95
2022-11-17T13:05:09.039Z,5.55
2022-11-17T13:08:13.656Z,4.80
2022-11-17T13:11:18.684Z,5.57
2022-11-17T13:14:23.507Z,5.43
2022-11-17T13:17:41.325Z,8.00
2022-11-17T13:20:48.548Z,6.35
2022-11-17T13:23:53.714Z,6.43
2022-11-17T13:27:00.758Z,6.07
2022-11-17T13:30:28.479Z,6.32
2022-11-17T13:33:38.448Z,5.32
2022-11-17T13:37:00.109Z,5.65
2022-11-17T13:40:22.022Z,5.35
2022-11-17T13:43:29.405Z,6.45
2022-11-17T13:46:35.899Z,7.50
2022-11-17T13:49:40.844Z,5.88
2022-11-17T13:52:47.200Z,6.43
2022-11-17T13:55:53.340Z,7.05
2022-11-17T13:59:01.777Z,9.38
2022-11-17T14:02:21.510Z,9.40
2022-11-17T14:05:32.517Z,8.10
2022-11-17T14:08:40.356Z,7.82
2022-11-17T14:11:44.960Z,7.07
2022-11-17T14:14:49.845Z,7.68
2022-11-17T14:17:58.145Z,7.50
2022-11-17T14:21:14.054Z,10.45
2022-11-17T14:24:18.999Z,11.60
2022-11-17T14:27:29.773Z,7.68
2022-11-17T14:30:34.389Z,7.22
2022-11-17T14:33:39.640Z,7.70
2022-11-17T14:36:44.563Z,8.55
2022-11-17T14:39:49.480Z,8.23
2022-11-17T14:42:54.285Z,9.27
2022-11-17T14:45:59.343Z,9.70
2022-11-17T14:49:04.286Z,10.02
2022-11-17T14:52:08.973Z,10.80
2022-11-17T14:55:14.838Z,13.65
2022-11-17T14:58:20.437Z,11.13
2022-11-17T15:01:28.992Z,10.80
2022-11-17T15:04:50.043Z,10.95
2022-11-17T15:07:56.501Z,10.80
2022-11-17T15:11:02.719Z,11.25
2022-11-17T15:14:07.971Z,10.15
2022-11-17T15:17:14.762Z,13.85
2022-11-17T15:20:19.832Z,13.27
2022-11-17T15:23:24.802Z,11.02
2022-11-17T15:26:29.744Z,11.98
2022-11-17T15:29:34.795Z,12.45
2022-11-17T15:32:39.864Z,14.15
2022-11-17T15:35:44.896Z,12.23
2022-11-17T15:38:50.145Z,12.52
2022-11-17T15:41:55.033Z,13.55
2022-11-17T15:44:59.889Z,15.57
2022-11-17T15:48:04.861Z,15.50
2022-11-17T15:51:28.490Z,14.55
2022-11-17T15:54:33.562Z,15.98
2022-11-17T15:57:38.599Z,16.70
2022-11-17T16:00:43.463Z,16.27
2022-11-17T16:03:48.171Z,14.35
2022-11-17T16:06:53.019Z,14.70
2022-11-17T16:09:57.887Z,15.48
2022-11-17T16:13:02.809Z,14.45
2022-11-17T16:16:10.560Z,14.95
2022-11-17T16:19:16.217Z,14.68
2022-11-17T16:22:21.540Z,14.75
2022-11-17T16:25:26.551Z,14.23
2022-11-17T16:28:31.313Z,16.40
2022-11-17T16:31:37.601Z,14.10
2022-11-17T16:34:43.498Z,14.98
2022-11-17T16:37:51.759Z,15.00
2022-11-17T16:41:01.533Z,12.55
2022-11-17T16:44:09.775Z,14.57
2022-11-17T16:47:14.938Z,15.52
2022-11-17T16:50:19.810Z,15.38
2022-11-17T16:53:24.714Z,15.20
2022-11-17T16:56:29.967Z,13.20
2022-11-17T16:59:35.197Z,11.77
2022-11-17T17:02:40.242Z,13.23
2022-11-17T17:05:44.890Z,11.80
2022-11-17T17:08:57.729Z,13.13
2022-11-17T17:12:03.293Z,13.70
2022-11-17T17:15:09.972Z,12.82
2022-11-17T17:18:15.038Z,12.40
2022-11-17T17:21:20.361Z,12.65
2022-11-17T17:24:25.650Z,13.98
2022-11-17T17:27:31.460Z,15.13
2022-11-17T17:30:36.319Z,14.35
2022-11-17T17:33:41.296Z,16.42
2022-11-17T17:36:46.199Z,15.77
2022-11-17T17:39:51.115Z,16.13
2022-11-17T17:42:55.964Z,18.63
2022-11-17T17:46:02.317Z,18.90
2022-11-17T17:49:07.366Z,18.08
2022-11-17T17:52:14.002Z,17.77
2022-11-17T17:55:19.314Z,20.27
2022-11-17T17:58:24.208Z,17.40
2022-11-17T18:01:33.136Z,19.00
2022-11-17T18:04:38.276Z,17.52
2022-11-17T18:07:43.107Z,18.13
2022-11-17T18:10:47.788Z,16.63
2022-11-17T18:13:53.444Z,16.77
2022-11-17T18:16:58.863Z,18.45
2022-11-17T18:20:04.575Z,18.33
2022-11-17T18:23:09.725Z,16.38
2022-11-17T18:26:21.562Z,18.25
2022-11-17T18:29:26.562Z,17.13
2022-11-17T18:32:31.603Z,22.58
2022-11-17T18:35:36.348Z,20.17
2022-11-17T18:38:41.124Z,18.70
2022-11-17T18:41:46.977Z,20.02
2022-11-17T18:44:51.855Z,17.30
2022-11-17T18:47:56.837Z,21.75
2022-11-17T18:51:19.185Z,19.92
2022-11-17T18:54:25.294Z,18.70
2022-11-17T18:57:30.058Z,22.48
2022-11-17T19:00:34.763Z,20.70
2022-11-17T19:03:40.937Z,18.80
2022-11-17T19:06:46.455Z,19.27
2022-11-17T19:09:51.948Z,25.42
2022-11-17T19:12:58.153Z,22.83
2022-11-17T19:16:18.875Z,22.27
2022-11-17T19:19:23.966Z,20.58
2022-11-17T19:22:28.878Z,21.45
2022-11-17T19:25:41.560Z,20.45
2022-11-17T19:28:47.771Z,20.92
2022-11-17T19:31:52.703Z,19.85
2022-11-17T19:35:06.199Z,24.38
2022-11-17T19:38:16.764Z,28.95
2022-11-17T19:41:37.455Z,24.42
2022-11-17T19:44:42.457Z,25.23
2022-11-17T19:47:47.307Z,22.48
2022-11-17T19:50:55.901Z,24.80
2022-11-17T19:54:03.071Z,25.95
2022-11-17T19:57:08.041Z,25.27
2022-11-17T20:00:13.504Z,28.80
2022-11-17T20:03:18.452Z,24.80
2022-11-17T20:06:29.149Z,22.65
2022-11-17T20:09:34.162Z,27.88
2022-11-17T20:12:41.257Z,22.75
2022-11-17T20:15:47.562Z,24.10
2022-11-17T20:18:55.665Z,29.15
2022-11-17T20:22:00.476Z,22.60
2022-11-17T20:25:07.085Z,23.95
2022-11-17T20:28:12.471Z,26.45
2022-11-17T20:31:24.390Z,25.35
2022-11-17T20:34:29.588Z,26.48
2022-11-17T20:37:34.527Z,22.60
2022-11-17T20:40:39.473Z,23.05
2022-11-17T20:43:48.405Z,22.45
2022-11-17T20:46:55.327Z,25.10
2022-11-17T20:50:00.314Z,24.83
2022-11-17T20:53:05.085Z,24.42
2022-11-17T20:56:11.703Z,25.38
2022-11-17T20:59:19.956Z,28.67
2022-11-17T21:02:25.631Z,27.60
2022-11-17T21:05:30.542Z,25.42
2022-11-17T21:08:39.317Z,23.45
2022-11-17T21:11:56.314Z,27.35
2022-11-17T21:15:01.369Z,22.88
2022-11-17T21:18:24.141Z,25.73
2022-11-17T21:21:29.115Z,23.48
2022-11-17T21:24:33.700Z,26.30
2022-11-17T21:27:38.610Z,25.75
2022-11-17T21:30:43.756Z,25.52
2022-11-17T21:33:55.233Z,24.00
2022-11-17T21:37:00.362Z,26.63
2022-11-17T21:40:06.472Z,24.70
2022-11-17T21:43:11.496Z,25.17
2022-11-17T21:46:19.717Z,28.83
2022-11-17T21:49:25.097Z,24.67
2022-11-17T21:52:29.941Z,27.48
2022-11-17T21:55:34.646Z,24.50
2022-11-17T21:58:39.957Z,27.25
2022-11-17T22:01:44.804Z,25.15
2022-11-17T22:04:49.844Z,25.38
2022-11-17T22:07:54.882Z,27.02
2022-11-17T22:11:04.185Z,28.13
2022-11-17T22:14:19.585Z,23.98
2022-11-17T22:17:24.616Z,24.45
2022-11-17T22:20:29.663Z,27.40
2022-11-17T22:23:35.008Z,23.27
2022-11-17T22:26:42.403Z,24.52
2022-11-17T22:29:47.281Z,24.85
2022-11-17T22:32:52.114Z,23.80
2022-11-17T22:36:00.769Z,22.80
2022-11-17T22:39:05.961Z,21.88
2022-11-17T22:42:10.773Z,23.33
2022-11-17T22:45:16.412Z,23.75
2022-11-17T22:48:21.725Z,27.33
2022-11-17T22:51:44.862Z,22.45
2022-11-17T22:54:49.952Z,20.52
2022-11-17T22:57:55.119Z,24.92
2022-11-17T23:01:07.487Z,24.27
2022-11-17T23:04:12.958Z,25.13
2022-11-17T23:07:17.871Z,23.23
2022-11-17T23:10:22.730Z,24.92
2022-11-17T23:13:27.872Z,22.95
2022-11-17T23:16:33.142Z,22.67
2022-11-17T23:19:38.002Z,22.13
2022-11-17T23:22:43.047Z,21.88
2022-11-17T23:25:48.185Z,24.95
2022-11-17T23:28:52.938Z,28.10
2022-11-17T23:31:57.715Z,23.42
2022-11-17T23:35:02.481Z,29.80
2022-11-17T23:38:07.744Z,20.92
2022-11-17T23:41:15.384Z,23.10
2022-11-17T23:44:20.328Z,24.38
2022-11-17T23:47:25.197Z,21.75
2022-11-17T23:50:30.243Z,25.38
2022-11-17T23:53:35.384Z,22.52
2022-11-17T23:56:40.169Z,25.27
2022-11-17T23:59:45.224Z,26.45
